sensor_id;sensor_type;location;lat;lon;timestamp;temperature;humidity
53534;DHT22;39421;53.204;6.568;2022-08-11T00:01:20;23.70;99.90
53534;DHT22;39421;53.204;6.568;2022-08-11T00:03:53;23.70;99.90
53534;DHT22;39421;53.204;6.568;2022-08-11T00:06:31;23.60;99.90
53534;DHT22;39421;53.204;6.568;2022-08-11T00:08:58;23.60;99.90
53534;DHT22;39421;53.204;6.568;2022-08-11T00:11:51;23.60;99.90
53534;DHT22;39421;53.204;6.568;2022-08-11T00:14:23;23.60;99.90
53534;DHT22;39421;53.204;6.568;2022-08-11T00:16:58;23.60;99.90
53534;DHT22;39421;53.204;6.568;2022-08-11T00:19:31;23.60;99.90
53534;DHT22;39421;53.204;6.568;2022-08-11T00:21:58;23.50;99.90
53534;DHT22;39421;53.204;6.568;2022-08-11T00:24:31;23.50;99.90
53534;DHT22;39421;53.204;6.568;2022-08-11T00:26:57;23.50;99.90
53534;DHT22;39421;53.204;6.568;2022-08-11T00:29:23;23.50;99.90
53534;DHT22;39421;53.204;6.568;2022-08-11T00:31:55;23.50;99.90
53534;DHT22;39421;53.204;6.568;2022-08-11T00:34:24;23.40;99.90
53534;DHT22;39421;53.204;6.568;2022-08-11T00:36:51;23.40;99.90
53534;DHT22;39421;53.204;6.568;2022-08-11T00:39:20;23.40;99.90
53534;DHT22;39421;53.204;6.568;2022-08-11T00:44:54;23.40;99.90
53534;DHT22;39421;53.204;6.568;2022-08-11T01:06:51;23.10;99.90
53534;DHT22;39421;53.204;6.568;2022-08-11T01:20:02;23.00;99.90
53534;DHT22;39421;53.204;6.568;2022-08-11T01:37:01;23.10;99.90
53534;DHT22;39421;53.204;6.568;2022-08-11T01:50:55;23.00;99.90
53534;DHT22;39421;53.204;6.568;2022-08-11T01:59:36;22.90;99.90
53534;DHT22;39421;53.204;6.568;2022-08-11T02:05:20;22.90;99.90
53534;DHT22;39421;53.204;6.568;2022-08-11T02:08:22;22.90;99.90
53534;DHT22;39421;53.204;6.568;2022-08-11T02:11:21;22.90;99.90
53534;DHT22;39421;53.204;6.568;2022-08-11T02:19:37;22.80;99.90
53534;DHT22;39421;53.204;6.568;2022-08-11T02:25:52;22.80;99.90
53534;DHT22;39421;53.204;6.568;2022-08-11T02:28:48;22.80;99.90
53534;DHT22;39421;53.204;6.568;2022-08-11T02:31:16;22.80;99.90
53534;DHT22;39421;53.204;6.568;2022-08-11T02:34:21;22.80;99.90
53534;DHT22;39421;53.204;6.568;2022-08-11T02:37:06;22.70;99.90
53534;DHT22;39421;53.204;6.568;2022-08-11T02:51:04;22.70;99.90
53534;DHT22;39421;53.204;6.568;2022-08-11T02:59:42;22.70;99.90
53534;DHT22;39421;53.204;6.568;2022-08-11T03:05:17;22.70;99.90
53534;DHT22;39421;53.204;6.568;2022-08-11T03:10:59;22.70;99.90
53534;DHT22;39421;53.204;6.568;2022-08-11T03:14:13;22.70;99.90
53534;DHT22;39421;53.204;6.568;2022-08-11T03:22:56;22.60;99.90
53534;DHT22;39421;53.204;6.568;2022-08-11T03:26:00;22.60;99.90
53534;DHT22;39421;53.204;6.568;2022-08-11T03:28:47;22.60;99.90
53534;DHT22;39421;53.204;6.568;2022-08-11T03:31:25;22.60;99.90
53534;DHT22;39421;53.204;6.568;2022-08-11T03:34:14;22.60;99.90
53534;DHT22;39421;53.204;6.568;2022-08-11T03:46:47;22.50;99.90
53534;DHT22;39421;53.204;6.568;2022-08-11T04:00:10;22.40;99.90
53534;DHT22;39421;53.204;6.568;2022-08-11T04:03:06;22.40;99.90
53534;DHT22;39421;53.204;6.568;2022-08-11T04:06:28;22.40;99.90
53534;DHT22;39421;53.204;6.568;2022-08-11T04:08:36;22.30;99.90
53534;DHT22;39421;53.204;6.568;2022-08-11T04:22:53;22.30;99.90
53534;DHT22;39421;53.204;6.568;2022-08-11T04:26:12;22.20;99.90
53534;DHT22;39421;53.204;6.568;2022-08-11T04:31:34;22.20;99.90
53534;DHT22;39421;53.204;6.568;2022-08-11T04:37:16;21.90;99.90
53534;DHT22;39421;53.204;6.568;2022-08-11T04:55:01;21.40;99.90
53534;DHT22;39421;53.204;6.568;2022-08-11T05:13:03;21.60;99.90
53534;DHT22;39421;53.204;6.568;2022-08-11T05:16:02;21.70;99.90
53534;DHT22;39421;53.204;6.568;2022-08-11T05:18:52;21.70;99.90
53534;DHT22;39421;53.204;6.568;2022-08-11T05:21:39;21.70;99.90
53534;DHT22;39421;53.204;6.568;2022-08-11T05:24:30;21.80;99.90
53534;DHT22;39421;53.204;6.568;2022-08-11T05:27:18;21.80;99.90
53534;DHT22;39421;53.204;6.568;2022-08-11T05:30:03;21.90;99.90
53534;DHT22;39421;53.204;6.568;2022-08-11T05:33:22;22.10;99.90
53534;DHT22;39421;53.204;6.568;2022-08-11T05:36:16;22.20;99.90
53534;DHT22;39421;53.204;6.568;2022-08-11T05:38:55;22.30;99.90
53534;DHT22;39421;53.204;6.568;2022-08-11T05:41:40;22.50;99.90
53534;DHT22;39421;53.204;6.568;2022-08-11T05:44:26;22.70;99.90
53534;DHT22;39421;53.204;6.568;2022-08-11T05:47:24;22.80;99.90
53534;DHT22;39421;53.204;6.568;2022-08-11T05:50:11;23.00;99.90
53534;DHT22;39421;53.204;6.568;2022-08-11T05:52:57;23.10;99.90
53534;DHT22;39421;53.204;6.568;2022-08-11T05:55:44;23.20;99.90
53534;DHT22;39421;53.204;6.568;2022-08-11T05:58:37;23.30;99.90
53534;DHT22;39421;53.204;6.568;2022-08-11T06:01:05;23.40;99.90
53534;DHT22;39421;53.204;6.568;2022-08-11T06:03:32;23.50;99.90
53534;DHT22;39421;53.204;6.568;2022-08-11T06:06:23;23.60;99.90
53534;DHT22;39421;53.204;6.568;2022-08-11T06:08:49;23.70;99.90
53534;DHT22;39421;53.204;6.568;2022-08-11T06:11:19;23.80;99.90
53534;DHT22;39421;53.204;6.568;2022-08-11T06:13:45;23.90;99.90
53534;DHT22;39421;53.204;6.568;2022-08-11T06:16:21;24.00;99.90
53534;DHT22;39421;53.204;6.568;2022-08-11T06:18:48;24.00;99.90
53534;DHT22;39421;53.204;6.568;2022-08-11T06:21:15;24.10;99.90
53534;DHT22;39421;53.204;6.568;2022-08-11T06:23:42;24.20;99.90
53534;DHT22;39421;53.204;6.568;2022-08-11T06:26:10;24.30;99.90
53534;DHT22;39421;53.204;6.568;2022-08-11T06:28:38;24.40;99.90
53534;DHT22;39421;53.204;6.568;2022-08-11T06:31:16;24.50;99.90
53534;DHT22;39421;53.204;6.568;2022-08-11T06:33:55;24.50;99.90
53534;DHT22;39421;53.204;6.568;2022-08-11T06:36:42;24.60;99.90
53534;DHT22;39421;53.204;6.568;2022-08-11T06:42:04;24.80;99.90
53534;DHT22;39421;53.204;6.568;2022-08-11T06:47:10;25.00;99.90
53534;DHT22;39421;53.204;6.568;2022-08-11T06:49:41;25.10;99.90
53534;DHT22;39421;53.204;6.568;2022-08-11T06:52:31;25.20;99.90
53534;DHT22;39421;53.204;6.568;2022-08-11T06:55:04;25.40;99.90
53534;DHT22;39421;53.204;6.568;2022-08-11T06:57:33;25.50;99.90
53534;DHT22;39421;53.204;6.568;2022-08-11T07:00:18;25.60;99.90
53534;DHT22;39421;53.204;6.568;2022-08-11T07:03:10;25.80;99.80
53534;DHT22;39421;53.204;6.568;2022-08-11T07:14:03;26.30;99.10
53534;DHT22;39421;53.204;6.568;2022-08-11T07:16:49;26.50;99.00
53534;DHT22;39421;53.204;6.568;2022-08-11T07:19:24;26.60;98.90
53534;DHT22;39421;53.204;6.568;2022-08-11T07:22:11;26.70;98.30
53534;DHT22;39421;53.204;6.568;2022-08-11T07:25:02;26.80;97.80
53534;DHT22;39421;53.204;6.568;2022-08-11T07:28:02;27.00;97.60
53534;DHT22;39421;53.204;6.568;2022-08-11T07:30:47;27.10;97.20
53534;DHT22;39421;53.204;6.568;2022-08-11T07:33:21;27.30;97.10
53534;DHT22;39421;53.204;6.568;2022-08-11T07:35:52;27.30;96.90
53534;DHT22;39421;53.204;6.568;2022-08-11T07:38:33;27.40;97.00
53534;DHT22;39421;53.204;6.568;2022-08-11T07:41:10;27.50;96.30
53534;DHT22;39421;53.204;6.568;2022-08-11T07:43:38;27.70;95.90
53534;DHT22;39421;53.204;6.568;2022-08-11T07:46:05;27.80;95.90
53534;DHT22;39421;53.204;6.568;2022-08-11T07:48:50;28.00;95.90
53534;DHT22;39421;53.204;6.568;2022-08-11T07:51:35;28.10;95.60
53534;DHT22;39421;53.204;6.568;2022-08-11T07:54:20;28.30;95.40
53534;DHT22;39421;53.204;6.568;2022-08-11T07:56:46;28.40;95.10
53534;DHT22;39421;53.204;6.568;2022-08-11T07:59:12;28.40;95.00
53534;DHT22;39421;53.204;6.568;2022-08-11T08:01:58;28.30;95.30
53534;DHT22;39421;53.204;6.568;2022-08-11T08:04:44;28.40;94.90
53534;DHT22;39421;53.204;6.568;2022-08-11T08:07:29;28.60;94.00
53534;DHT22;39421;53.204;6.568;2022-08-11T08:10:17;28.70;94.40
53534;DHT22;39421;53.204;6.568;2022-08-11T08:13:01;28.90;94.10
53534;DHT22;39421;53.204;6.568;2022-08-11T08:15:46;29.00;93.10
53534;DHT22;39421;53.204;6.568;2022-08-11T08:18:33;29.10;93.10
53534;DHT22;39421;53.204;6.568;2022-08-11T08:21:00;29.10;92.40
53534;DHT22;39421;53.204;6.568;2022-08-11T08:23:38;29.20;93.50
53534;DHT22;39421;53.204;6.568;2022-08-11T08:26:09;29.20;93.10
53534;DHT22;39421;53.204;6.568;2022-08-11T08:28:57;29.30;93.00
53534;DHT22;39421;53.204;6.568;2022-08-11T08:31:44;29.40;93.70
53534;DHT22;39421;53.204;6.568;2022-08-11T08:34:11;29.50;93.60
53534;DHT22;39421;53.204;6.568;2022-08-11T08:36:41;29.70;93.50
53534;DHT22;39421;53.204;6.568;2022-08-11T08:39:07;29.80;93.10
53534;DHT22;39421;53.204;6.568;2022-08-11T08:41:34;29.90;92.30
53534;DHT22;39421;53.204;6.568;2022-08-11T08:44:04;30.00;91.90
53534;DHT22;39421;53.204;6.568;2022-08-11T08:46:42;30.00;92.40
53534;DHT22;39421;53.204;6.568;2022-08-11T08:49:09;30.10;92.80
53534;DHT22;39421;53.204;6.568;2022-08-11T08:51:39;30.30;92.50
53534;DHT22;39421;53.204;6.568;2022-08-11T08:54:08;30.30;92.70
53534;DHT22;39421;53.204;6.568;2022-08-11T08:56:38;30.60;91.40
53534;DHT22;39421;53.204;6.568;2022-08-11T08:59:05;30.70;91.60
53534;DHT22;39421;53.204;6.568;2022-08-11T09:01:37;30.70;90.30
53534;DHT22;39421;53.204;6.568;2022-08-11T09:04:08;30.70;90.00
53534;DHT22;39421;53.204;6.568;2022-08-11T09:06:38;30.70;90.10
53534;DHT22;39421;53.204;6.568;2022-08-11T09:09:05;30.80;90.20
53534;DHT22;39421;53.204;6.568;2022-08-11T09:11:36;30.80;90.30
53534;DHT22;39421;53.204;6.568;2022-08-11T09:14:19;30.80;90.60
53534;DHT22;39421;53.204;6.568;2022-08-11T09:16:46;30.80;87.70
53534;DHT22;39421;53.204;6.568;2022-08-11T09:19:14;30.70;87.40
53534;DHT22;39421;53.204;6.568;2022-08-11T09:21:47;30.70;89.10
53534;DHT22;39421;53.204;6.568;2022-08-11T09:24:33;30.80;87.60
53534;DHT22;39421;53.204;6.568;2022-08-11T09:27:19;30.80;84.40
53534;DHT22;39421;53.204;6.568;2022-08-11T09:29:45;30.80;87.00
53534;DHT22;39421;53.204;6.568;2022-08-11T09:32:11;30.90;86.90
53534;DHT22;39421;53.204;6.568;2022-08-11T09:34:39;31.00;84.10
53534;DHT22;39421;53.204;6.568;2022-08-11T09:37:05;31.20;84.30
53534;DHT22;39421;53.204;6.568;2022-08-11T09:39:53;31.30;84.70
53534;DHT22;39421;53.204;6.568;2022-08-11T09:42:39;31.40;84.80
53534;DHT22;39421;53.204;6.568;2022-08-11T09:45:24;31.40;83.70
53534;DHT22;39421;53.204;6.568;2022-08-11T09:47:50;31.50;85.20
53534;DHT22;39421;53.204;6.568;2022-08-11T09:50:17;31.60;83.60
53534;DHT22;39421;53.204;6.568;2022-08-11T09:52:44;31.60;82.90
53534;DHT22;39421;53.204;6.568;2022-08-11T09:55:13;31.70;84.20
53534;DHT22;39421;53.204;6.568;2022-08-11T09:57:44;31.90;83.70
53534;DHT22;39421;53.204;6.568;2022-08-11T10:00:34;32.10;82.70
53534;DHT22;39421;53.204;6.568;2022-08-11T10:03:25;32.40;80.10
53534;DHT22;39421;53.204;6.568;2022-08-11T10:06:03;32.40;78.40
53534;DHT22;39421;53.204;6.568;2022-08-11T10:08:50;32.40;77.80
53534;DHT22;39421;53.204;6.568;2022-08-11T10:11:21;32.40;77.20
53534;DHT22;39421;53.204;6.568;2022-08-11T10:13:49;32.50;76.00
53534;DHT22;39421;53.204;6.568;2022-08-11T10:16:39;32.50;74.70
53534;DHT22;39421;53.204;6.568;2022-08-11T10:19:06;32.70;74.50
53534;DHT22;39421;53.204;6.568;2022-08-11T10:21:40;33.00;74.80
53534;DHT22;39421;53.204;6.568;2022-08-11T10:24:07;33.50;74.50
53534;DHT22;39421;53.204;6.568;2022-08-11T10:26:54;33.60;73.10
53534;DHT22;39421;53.204;6.568;2022-08-11T10:29:37;33.30;72.90
53534;DHT22;39421;53.204;6.568;2022-08-11T10:32:27;33.20;72.60
53534;DHT22;39421;53.204;6.568;2022-08-11T10:35:14;33.10;71.30
53534;DHT22;39421;53.204;6.568;2022-08-11T10:37:42;33.10;71.20
53534;DHT22;39421;53.204;6.568;2022-08-11T10:40:13;33.10;71.10
53534;DHT22;39421;53.204;6.568;2022-08-11T10:42:40;33.20;71.70
53534;DHT22;39421;53.204;6.568;2022-08-11T10:45:25;33.30;71.40
53534;DHT22;39421;53.204;6.568;2022-08-11T10:48:11;33.40;71.10
53534;DHT22;39421;53.204;6.568;2022-08-11T10:50:37;33.50;70.30
53534;DHT22;39421;53.204;6.568;2022-08-11T10:53:22;33.40;70.10
53534;DHT22;39421;53.204;6.568;2022-08-11T10:56:07;33.30;70.70
53534;DHT22;39421;53.204;6.568;2022-08-11T10:58:53;33.30;70.20
53534;DHT22;39421;53.204;6.568;2022-08-11T11:01:33;33.10;70.50
53534;DHT22;39421;53.204;6.568;2022-08-11T11:04:03;32.90;70.90
53534;DHT22;39421;53.204;6.568;2022-08-11T11:09:31;32.90;69.90
53534;DHT22;39421;53.204;6.568;2022-08-11T11:14:54;32.70;70.10
53534;DHT22;39421;53.204;6.568;2022-08-11T11:17:42;32.50;69.80
53534;DHT22;39421;53.204;6.568;2022-08-11T11:20:43;32.40;70.40
53534;DHT22;39421;53.204;6.568;2022-08-11T11:32:23;33.00;68.80
53534;DHT22;39421;53.204;6.568;2022-08-11T11:37:29;33.10;68.50
53534;DHT22;39421;53.204;6.568;2022-08-11T11:39:57;32.90;69.20
53534;DHT22;39421;53.204;6.568;2022-08-11T11:42:24;33.00;69.90
53534;DHT22;39421;53.204;6.568;2022-08-11T11:44:50;33.20;70.50
53534;DHT22;39421;53.204;6.568;2022-08-11T11:47:16;33.40;70.30
53534;DHT22;39421;53.204;6.568;2022-08-11T11:49:44;33.50;69.00
53534;DHT22;39421;53.204;6.568;2022-08-11T11:52:14;33.70;69.10
53534;DHT22;39421;53.204;6.568;2022-08-11T11:54:43;33.90;69.20
53534;DHT22;39421;53.204;6.568;2022-08-11T11:57:11;34.00;68.70
53534;DHT22;39421;53.204;6.568;2022-08-11T11:59:58;34.00;69.80
53534;DHT22;39421;53.204;6.568;2022-08-11T12:02:42;34.10;68.70
53534;DHT22;39421;53.204;6.568;2022-08-11T12:05:09;34.20;68.40
53534;DHT22;39421;53.204;6.568;2022-08-11T12:07:36;34.20;68.20
53534;DHT22;39421;53.204;6.568;2022-08-11T12:10:21;34.20;67.60
53534;DHT22;39421;53.204;6.568;2022-08-11T12:12:47;34.10;66.30
53534;DHT22;39421;53.204;6.568;2022-08-11T12:15:33;34.10;67.10
53534;DHT22;39421;53.204;6.568;2022-08-11T12:18:00;34.10;66.10
53534;DHT22;39421;53.204;6.568;2022-08-11T12:20:26;34.10;66.30
53534;DHT22;39421;53.204;6.568;2022-08-11T12:22:54;34.00;66.20
53534;DHT22;39421;53.204;6.568;2022-08-11T12:25:38;33.90;66.60
53534;DHT22;39421;53.204;6.568;2022-08-11T12:28:23;33.70;66.90
53534;DHT22;39421;53.204;6.568;2022-08-11T12:30:53;33.60;66.50
53534;DHT22;39421;53.204;6.568;2022-08-11T12:33:19;33.40;66.60
53534;DHT22;39421;53.204;6.568;2022-08-11T12:35:47;33.10;67.50
53534;DHT22;39421;53.204;6.568;2022-08-11T12:38:17;33.10;68.10
53534;DHT22;39421;53.204;6.568;2022-08-11T12:40:46;33.20;68.70
53534;DHT22;39421;53.204;6.568;2022-08-11T12:43:31;33.40;68.90
53534;DHT22;39421;53.204;6.568;2022-08-11T12:46:20;33.60;69.00
53534;DHT22;39421;53.204;6.568;2022-08-11T12:48:48;33.80;68.50
53534;DHT22;39421;53.204;6.568;2022-08-11T12:51:37;33.90;68.10
53534;DHT22;39421;53.204;6.568;2022-08-11T12:56:58;33.90;67.60
53534;DHT22;39421;53.204;6.568;2022-08-11T12:59:44;33.90;68.00
53534;DHT22;39421;53.204;6.568;2022-08-11T13:02:29;33.90;67.40
53534;DHT22;39421;53.204;6.568;2022-08-11T13:05:15;33.90;67.40
53534;DHT22;39421;53.204;6.568;2022-08-11T13:07:42;33.70;66.60
53534;DHT22;39421;53.204;6.568;2022-08-11T13:10:11;33.50;66.60
53534;DHT22;39421;53.204;6.568;2022-08-11T13:12:38;33.40;67.10
53534;DHT22;39421;53.204;6.568;2022-08-11T13:15:23;33.40;67.70
53534;DHT22;39421;53.204;6.568;2022-08-11T13:17:51;33.50;67.00
53534;DHT22;39421;53.204;6.568;2022-08-11T13:20:21;33.60;66.90
53534;DHT22;39421;53.204;6.568;2022-08-11T13:22:55;33.60;67.40
53534;DHT22;39421;53.204;6.568;2022-08-11T13:25:23;33.60;66.80
53534;DHT22;39421;53.204;6.568;2022-08-11T13:27:52;33.60;65.60
53534;DHT22;39421;53.204;6.568;2022-08-11T13:30:18;33.40;65.90
53534;DHT22;39421;53.204;6.568;2022-08-11T13:33:03;33.40;66.10
53534;DHT22;39421;53.204;6.568;2022-08-11T13:35:30;33.30;65.80
53534;DHT22;39421;53.204;6.568;2022-08-11T13:37:57;33.20;65.70
53534;DHT22;39421;53.204;6.568;2022-08-11T13:40:25;33.10;65.70
53534;DHT22;39421;53.204;6.568;2022-08-11T13:42:52;33.10;65.70
53534;DHT22;39421;53.204;6.568;2022-08-11T13:45:21;33.10;65.60
53534;DHT22;39421;53.204;6.568;2022-08-11T13:47:48;33.00;65.30
53534;DHT22;39421;53.204;6.568;2022-08-11T13:50:14;32.90;65.40
53534;DHT22;39421;53.204;6.568;2022-08-11T13:52:40;32.90;65.30
53534;DHT22;39421;53.204;6.568;2022-08-11T13:55:10;32.90;64.70
53534;DHT22;39421;53.204;6.568;2022-08-11T13:57:48;32.90;65.10
53534;DHT22;39421;53.204;6.568;2022-08-11T14:00:14;32.90;66.10
53534;DHT22;39421;53.204;6.568;2022-08-11T14:02:42;32.90;65.60
53534;DHT22;39421;53.204;6.568;2022-08-11T14:05:24;32.90;65.90
53534;DHT22;39421;53.204;6.568;2022-08-11T14:08:01;32.80;66.50
53534;DHT22;39421;53.204;6.568;2022-08-11T14:10:29;32.80;66.20
53534;DHT22;39421;53.204;6.568;2022-08-11T14:13:15;32.80;67.20
53534;DHT22;39421;53.204;6.568;2022-08-11T14:16:04;32.80;66.10
53534;DHT22;39421;53.204;6.568;2022-08-11T14:18:32;32.80;65.90
53534;DHT22;39421;53.204;6.568;2022-08-11T14:21:00;32.80;67.00
53534;DHT22;39421;53.204;6.568;2022-08-11T14:23:48;32.70;66.30
53534;DHT22;39421;53.204;6.568;2022-08-11T14:26:16;32.60;65.40
53534;DHT22;39421;53.204;6.568;2022-08-11T14:31:25;32.50;65.30
53534;DHT22;39421;53.204;6.568;2022-08-11T14:33:54;32.40;66.90
53534;DHT22;39421;53.204;6.568;2022-08-11T14:36:24;32.30;67.90
53534;DHT22;39421;53.204;6.568;2022-08-11T14:38:51;32.30;68.20
53534;DHT22;39421;53.204;6.568;2022-08-11T14:41:18;32.40;66.60
53534;DHT22;39421;53.204;6.568;2022-08-11T14:44:04;32.30;67.80
53534;DHT22;39421;53.204;6.568;2022-08-11T14:46:49;32.30;67.00
53534;DHT22;39421;53.204;6.568;2022-08-11T14:49:35;32.30;69.40
53534;DHT22;39421;53.204;6.568;2022-08-11T14:52:19;32.30;69.90
53534;DHT22;39421;53.204;6.568;2022-08-11T14:54:47;32.20;69.90
53534;DHT22;39421;53.204;6.568;2022-08-11T14:57:36;32.20;69.70
53534;DHT22;39421;53.204;6.568;2022-08-11T15:00:09;32.10;70.30
53534;DHT22;39421;53.204;6.568;2022-08-11T15:02:38;32.00;69.90
53534;DHT22;39421;53.204;6.568;2022-08-11T15:05:24;32.00;70.30
53534;DHT22;39421;53.204;6.568;2022-08-11T15:07:51;32.10;70.20
53534;DHT22;39421;53.204;6.568;2022-08-11T15:10:18;32.10;70.10
53534;DHT22;39421;53.204;6.568;2022-08-11T15:12:46;32.10;70.20
53534;DHT22;39421;53.204;6.568;2022-08-11T15:15:12;32.00;70.40
53534;DHT22;39421;53.204;6.568;2022-08-11T15:17:59;32.00;70.30
53534;DHT22;39421;53.204;6.568;2022-08-11T15:20:28;32.00;70.00
53534;DHT22;39421;53.204;6.568;2022-08-11T15:23:13;32.00;70.40
53534;DHT22;39421;53.204;6.568;2022-08-11T15:26:32;31.90;70.60
53534;DHT22;39421;53.204;6.568;2022-08-11T15:29:22;31.80;70.90
53534;DHT22;39421;53.204;6.568;2022-08-11T15:32:09;31.70;69.80
53534;DHT22;39421;53.204;6.568;2022-08-11T15:35:14;31.70;70.20
53534;DHT22;39421;53.204;6.568;2022-08-11T15:38:01;31.60;71.00
53534;DHT22;39421;53.204;6.568;2022-08-11T15:40:30;31.60;71.20
53534;DHT22;39421;53.204;6.568;2022-08-11T15:43:21;31.60;71.10
53534;DHT22;39421;53.204;6.568;2022-08-11T15:46:14;31.60;71.60
53534;DHT22;39421;53.204;6.568;2022-08-11T15:48:44;31.50;72.10
53534;DHT22;39421;53.204;6.568;2022-08-11T15:51:19;31.60;72.70
53534;DHT22;39421;53.204;6.568;2022-08-11T15:53:57;31.60;72.00
53534;DHT22;39421;53.204;6.568;2022-08-11T15:56:27;31.50;72.40
53534;DHT22;39421;53.204;6.568;2022-08-11T15:58:56;31.50;72.60
53534;DHT22;39421;53.204;6.568;2022-08-11T16:01:43;31.50;72.70
53534;DHT22;39421;53.204;6.568;2022-08-11T16:04:30;31.40;72.40
53534;DHT22;39421;53.204;6.568;2022-08-11T16:07:06;31.40;72.60
53534;DHT22;39421;53.204;6.568;2022-08-11T16:09:39;31.30;72.80
53534;DHT22;39421;53.204;6.568;2022-08-11T16:12:11;31.20;72.80
53534;DHT22;39421;53.204;6.568;2022-08-11T16:14:44;31.10;73.70
53534;DHT22;39421;53.204;6.568;2022-08-11T16:17:32;31.00;73.00
53534;DHT22;39421;53.204;6.568;2022-08-11T16:19:59;31.00;73.60
53534;DHT22;39421;53.204;6.568;2022-08-11T16:22:32;31.00;74.10
53534;DHT22;39421;53.204;6.568;2022-08-11T16:25:06;31.10;73.30
53534;DHT22;39421;53.204;6.568;2022-08-11T16:27:36;31.10;73.60
53534;DHT22;39421;53.204;6.568;2022-08-11T16:30:03;31.00;73.20
53534;DHT22;39421;53.204;6.568;2022-08-11T16:32:31;30.90;73.80
53534;DHT22;39421;53.204;6.568;2022-08-11T16:35:01;30.80;73.80
53534;DHT22;39421;53.204;6.568;2022-08-11T16:37:46;30.80;74.40
53534;DHT22;39421;53.204;6.568;2022-08-11T16:40:32;30.80;74.40
53534;DHT22;39421;53.204;6.568;2022-08-11T16:42:59;30.90;74.30
53534;DHT22;39421;53.204;6.568;2022-08-11T16:45:44;30.80;74.50
53534;DHT22;39421;53.204;6.568;2022-08-11T16:48:31;30.80;74.90
53534;DHT22;39421;53.204;6.568;2022-08-11T16:50:58;30.80;75.10
53534;DHT22;39421;53.204;6.568;2022-08-11T16:53:27;30.70;75.00
53534;DHT22;39421;53.204;6.568;2022-08-11T16:55:54;30.70;75.50
53534;DHT22;39421;53.204;6.568;2022-08-11T16:58:22;30.60;75.40
53534;DHT22;39421;53.204;6.568;2022-08-11T17:01:08;30.60;75.50
53534;DHT22;39421;53.204;6.568;2022-08-11T17:03:40;30.60;76.30
53534;DHT22;39421;53.204;6.568;2022-08-11T17:06:26;30.60;76.30
53534;DHT22;39421;53.204;6.568;2022-08-11T17:09:13;30.50;76.20
53534;DHT22;39421;53.204;6.568;2022-08-11T17:12:01;30.60;76.80
53534;DHT22;39421;53.204;6.568;2022-08-11T17:14:52;30.50;76.60
53534;DHT22;39421;53.204;6.568;2022-08-11T17:17:28;30.50;76.80
53534;DHT22;39421;53.204;6.568;2022-08-11T17:20:00;30.40;77.40
53534;DHT22;39421;53.204;6.568;2022-08-11T17:22:28;30.40;77.50
53534;DHT22;39421;53.204;6.568;2022-08-11T17:25:15;30.30;78.00
53534;DHT22;39421;53.204;6.568;2022-08-11T17:27:42;30.30;78.00
53534;DHT22;39421;53.204;6.568;2022-08-11T17:30:10;30.30;77.90
53534;DHT22;39421;53.204;6.568;2022-08-11T17:32:45;30.20;78.30
53534;DHT22;39421;53.204;6.568;2022-08-11T17:35:40;30.20;78.60
53534;DHT22;39421;53.204;6.568;2022-08-11T17:38:10;30.20;79.10
53534;DHT22;39421;53.204;6.568;2022-08-11T17:40:47;30.10;78.90
53534;DHT22;39421;53.204;6.568;2022-08-11T17:43:32;30.10;80.00
53534;DHT22;39421;53.204;6.568;2022-08-11T17:46:17;30.00;79.40
53534;DHT22;39421;53.204;6.568;2022-08-11T17:49:05;30.00;80.00
53534;DHT22;39421;53.204;6.568;2022-08-11T17:51:33;29.90;78.90
53534;DHT22;39421;53.204;6.568;2022-08-11T17:54:18;29.80;79.30
53534;DHT22;39421;53.204;6.568;2022-08-11T17:57:05;29.70;79.30
53534;DHT22;39421;53.204;6.568;2022-08-11T17:59:50;29.70;79.90
53534;DHT22;39421;53.204;6.568;2022-08-11T18:02:23;29.70;79.60
53534;DHT22;39421;53.204;6.568;2022-08-11T18:05:09;29.60;79.50
53534;DHT22;39421;53.204;6.568;2022-08-11T18:07:36;29.50;79.70
53534;DHT22;39421;53.204;6.568;2022-08-11T18:10:21;29.50;79.60
53534;DHT22;39421;53.204;6.568;2022-08-11T18:13:05;29.60;79.90
53534;DHT22;39421;53.204;6.568;2022-08-11T18:15:50;29.50;80.20
53534;DHT22;39421;53.204;6.568;2022-08-11T18:18:34;29.40;80.50
53534;DHT22;39421;53.204;6.568;2022-08-11T18:21:20;29.40;80.60
53534;DHT22;39421;53.204;6.568;2022-08-11T18:24:09;29.30;80.30
53534;DHT22;39421;53.204;6.568;2022-08-11T18:26:58;29.20;80.80
53534;DHT22;39421;53.204;6.568;2022-08-11T18:29:43;29.20;80.50
53534;DHT22;39421;53.204;6.568;2022-08-11T18:32:30;29.10;81.00
53534;DHT22;39421;53.204;6.568;2022-08-11T18:35:17;29.10;81.40
53534;DHT22;39421;53.204;6.568;2022-08-11T18:38:03;29.10;81.30
53534;DHT22;39421;53.204;6.568;2022-08-11T18:40:50;29.00;81.40
53534;DHT22;39421;53.204;6.568;2022-08-11T18:43:36;29.00;81.80
53534;DHT22;39421;53.204;6.568;2022-08-11T18:46:23;29.00;81.70
53534;DHT22;39421;53.204;6.568;2022-08-11T18:49:14;28.90;82.00
53534;DHT22;39421;53.204;6.568;2022-08-11T18:51:59;28.90;82.40
53534;DHT22;39421;53.204;6.568;2022-08-11T18:54:46;28.90;82.60
53534;DHT22;39421;53.204;6.568;2022-08-11T18:57:33;28.90;82.40
53534;DHT22;39421;53.204;6.568;2022-08-11T19:00:19;28.90;82.30
53534;DHT22;39421;53.204;6.568;2022-08-11T19:03:04;28.90;82.40
53534;DHT22;39421;53.204;6.568;2022-08-11T19:05:50;28.90;83.10
53534;DHT22;39421;53.204;6.568;2022-08-11T19:08:47;28.90;83.20
53534;DHT22;39421;53.204;6.568;2022-08-11T19:11:32;28.90;83.20
53534;DHT22;39421;53.204;6.568;2022-08-11T19:14:18;28.80;83.30
53534;DHT22;39421;53.204;6.568;2022-08-11T19:17:05;28.80;83.30
53534;DHT22;39421;53.204;6.568;2022-08-11T19:19:51;28.70;83.20
53534;DHT22;39421;53.204;6.568;2022-08-11T19:22:35;28.70;83.80
53534;DHT22;39421;53.204;6.568;2022-08-11T19:25:21;28.60;84.20
53534;DHT22;39421;53.204;6.568;2022-08-11T19:28:06;28.60;84.10
53534;DHT22;39421;53.204;6.568;2022-08-11T19:30:52;28.50;83.90
53534;DHT22;39421;53.204;6.568;2022-08-11T19:33:39;28.50;84.40
53534;DHT22;39421;53.204;6.568;2022-08-11T19:36:25;28.50;84.30
53534;DHT22;39421;53.204;6.568;2022-08-11T19:39:11;28.40;84.40
53534;DHT22;39421;53.204;6.568;2022-08-11T19:41:56;28.30;84.90
53534;DHT22;39421;53.204;6.568;2022-08-11T19:44:41;28.30;84.70
53534;DHT22;39421;53.204;6.568;2022-08-11T19:47:26;28.30;85.20
53534;DHT22;39421;53.204;6.568;2022-08-11T19:50:12;28.30;85.40
53534;DHT22;39421;53.204;6.568;2022-08-11T19:52:58;28.20;85.40
53534;DHT22;39421;53.204;6.568;2022-08-11T19:55:46;28.20;85.40
53534;DHT22;39421;53.204;6.568;2022-08-11T19:58:35;28.20;85.70
53534;DHT22;39421;53.204;6.568;2022-08-11T20:01:19;28.10;85.70
53534;DHT22;39421;53.204;6.568;2022-08-11T20:04:04;28.10;85.80
53534;DHT22;39421;53.204;6.568;2022-08-11T20:06:50;28.10;85.70
53534;DHT22;39421;53.204;6.568;2022-08-11T20:09:36;28.10;86.30
53534;DHT22;39421;53.204;6.568;2022-08-11T20:12:23;28.00;87.10